Time;durP1;ratioP1;P1;durP2;ratioP2;P2;SDS_P1;SDS_P2;PMS_P1;PMS_P2;Temp;Humidity;BMP_temperature;BMP_pressure;BME280_temperature;BME280_humidity;BME280_pressure;Samples;Min_cycle;Max_cycle;Signal;HPM_P1;HPM_P2
2021/12/17 00:18:11;;;;;;;19.10;7.17;;;;;;;3.37;100.00;101625.91;21292715;27;20602;-59
2021/12/17 00:48:37;;;;;;;17.37;7.90;;;;;;;3.50;100.00;101638.03;20943393;28;20725;-59
2021/12/17 00:58:40;;;;;;;18.33;6.63;;;;;;;3.56;100.00;101627.38;20957717;28;20238;-59
2021/12/17 01:18:50;;;;;;;18.43;5.77;;;;;;;3.70;100.00;101630.69;20942442;27;21016;-59
2021/12/17 02:00:07;;;;;;;11.93;5.10;;;;;;;3.92;100.00;101642.66;21089623;28;20255;-59
2021/12/17 02:31:26;;;;;;;13.20;5.07;;;;;;;3.94;100.00;101603.00;21104227;28;20226;-58
2021/12/17 02:52:07;;;;;;;17.83;5.70;;;;;;;3.92;100.00;101584.53;21017017;28;20219;-58
2021/12/17 03:02:11;;;;;;;14.23;5.63;;;;;;;3.91;100.00;101585.44;20977161;28;20260;-58
2021/12/17 03:12:19;;;;;;;10.63;5.83;;;;;;;3.91;100.00;101598.66;20992810;28;20222;-58
2021/12/17 03:32:43;;;;;;;14.37;5.47;;;;;;;3.83;100.00;101568.88;21027568;28;20230;-58
2021/12/17 03:42:50;;;;;;;14.27;5.43;;;;;;;3.84;100.00;101565.34;21027854;28;20779;-59
2021/12/17 03:53:00;;;;;;;15.47;5.90;;;;;;;3.78;100.00;101560.13;21023623;28;20233;-59
2021/12/17 04:13:25;;;;;;;15.90;5.13;;;;;;;3.63;100.00;101555.09;20943855;27;20600;-59
2021/12/17 04:23:34;;;;;;;16.77;5.80;;;;;;;3.53;100.00;101542.94;20940052;28;21074;-59
2021/12/17 04:33:40;;;;;;;20.07;6.33;;;;;;;3.55;100.00;101554.38;20939365;28;20561;-59
2021/12/17 04:43:57;;;;;;;16.07;5.93;;;;;;;3.51;100.00;101568.50;20936476;28;20246;-59
2021/12/17 05:04:30;;;;;;;23.40;7.60;;;;;;;3.34;100.00;101581.94;20930979;28;20730;-59
2021/12/17 05:44:52;;;;;;;18.83;6.53;;;;;;;2.96;100.00;101598.28;21196274;27;20607;-60
2021/12/17 05:54:55;;;;;;;16.77;6.10;;;;;;;2.97;100.00;101578.06;21207130;27;20307;-59
2021/12/17 06:04:59;;;;;;;11.47;5.03;;;;;;;3.03;100.00;101577.97;21229038;27;20250;-60
2021/12/17 06:15:05;;;;;;;20.67;6.70;;;;;;;3.01;100.00;101575.38;21256738;27;20230;-59
2021/12/17 06:25:10;;;;;;;11.00;5.83;;;;;;;3.10;100.00;101601.63;21206074;27;20239;-59
2021/12/17 06:35:15;;;;;;;16.33;7.10;;;;;;;3.11;100.00;101589.31;21265805;27;20234;-59
2021/12/17 06:45:25;;;;;;;24.13;7.23;;;;;;;3.26;100.00;101591.72;21277488;27;20228;-58
2021/12/17 06:55:48;;;;;;;18.87;7.20;;;;;;;3.28;100.00;101583.78;21230754;27;20223;-59
2021/12/17 07:06:31;;;;;;;11.97;6.13;;;;;;;3.33;100.00;101581.97;21218477;27;20588;-59
2021/12/17 07:57:52;;;;;;;14.97;5.27;;;;;;;3.41;100.00;101654.84;21039276;27;20594;-58
2021/12/17 08:08:03;;;;;;;13.90;5.00;;;;;;;3.43;100.00;101668.88;21102493;27;20271;-59
2021/12/17 08:28:52;;;;;;;14.33;5.10;;;;;;;3.32;100.00;101669.91;21106482;27;20222;-57
2021/12/17 08:38:58;;;;;;;12.93;5.20;;;;;;;3.35;100.00;101688.34;21103168;27;20275;-58
2021/12/17 08:49:12;;;;;;;14.90;5.93;;;;;;;3.29;100.00;101684.03;21132015;27;20524;-58
2021/12/17 08:59:27;;;;;;;14.43;6.67;;;;;;;3.38;100.00;101680.41;21123424;27;20225;-57
2021/12/17 09:09:51;;;;;;;17.67;7.80;;;;;;;3.44;100.00;101672.41;21063618;28;20250;-58
2021/12/17 09:30:06;;;;;;;14.73;6.07;;;;;;;3.86;100.00;101660.38;21154682;27;20677;-58
2021/12/17 09:40:11;;;;;;;13.17;5.80;;;;;;;4.03;100.00;101655.69;21226151;27;20282;-57
2021/12/17 09:50:17;;;;;;;12.27;5.30;;;;;;;4.15;100.00;101658.13;21225575;27;20846;-57
2021/12/17 10:00:24;;;;;;;10.07;5.40;;;;;;;4.27;100.00;101663.19;21222867;27;20225;-58
2021/12/17 10:10:35;;;;;;;14.70;5.33;;;;;;;4.52;100.00;101649.56;21205504;27;20682;-57
2021/12/17 10:20:57;;;;;;;12.17;5.20;;;;;;;4.62;100.00;101640.56;21205369;27;20246;-57
2021/12/17 10:31:00;;;;;;;12.67;4.90;;;;;;;4.77;100.00;101655.25;21222005;27;20638;-58
2021/12/17 10:41:07;;;;;;;10.77;4.77;;;;;;;4.93;100.00;101635.56;21148710;27;20279;-58
2021/12/17 10:51:13;;;;;;;9.93;4.70;;;;;;;5.13;100.00;101632.50;21147361;27;20229;-58
2021/12/17 11:01:17;;;;;;;12.90;4.83;;;;;;;5.28;100.00;101606.59;21163351;27;20233;-58
2021/12/17 11:11:20;;;;;;;9.40;5.00;;;;;;;4.94;100.00;101610.84;21162978;27;20339;-58
2021/12/17 11:21:24;;;;;;;11.07;5.03;;;;;;;4.63;100.00;101595.59;21177665;27;20674;-58
2021/12/17 11:41:52;;;;;;;11.23;4.07;;;;;;;5.12;100.00;101594.59;21206701;27;20563;-57
2021/12/17 11:51:56;;;;;;;7.23;3.20;;;;;;;5.37;100.00;101600.22;21208928;27;20236;-56
2021/12/17 12:02:08;;;;;;;7.47;3.30;;;;;;;5.37;100.00;101611.66;21225877;27;20227;-57
2021/12/17 12:12:13;;;;;;;8.17;3.60;;;;;;;5.16;100.00;101612.16;21224765;28;20226;-58
2021/12/17 12:22:30;;;;;;;9.73;3.43;;;;;;;4.91;100.00;101626.78;21223945;28;20295;-58
2021/12/17 12:32:34;;;;;;;8.97;3.50;;;;;;;4.76;100.00;101605.91;21222910;28;20241;-57
2021/12/17 12:42:38;;;;;;;8.73;3.50;;;;;;;4.67;100.00;101597.28;21222540;28;20279;-58
2021/12/17 12:52:45;;;;;;;5.83;3.30;;;;;;;4.60;100.00;101574.47;21165555;28;20247;-58
2021/12/17 13:02:55;;;;;;;8.43;3.67;;;;;;;4.56;100.00;101583.41;21164056;28;20315;-58
2021/12/17 13:13:14;;;;;;;8.53;4.03;;;;;;;4.50;100.00;101590.56;21163090;28;20633;-58
2021/12/17 13:23:19;;;;;;;11.27;4.40;;;;;;;4.37;100.00;101615.47;21139903;27;20304;-57
2021/12/17 13:33:22;;;;;;;10.87;4.50;;;;;;;4.28;100.00;101617.38;21161897;27;20751;-57
2021/12/17 13:43:31;;;;;;;9.33;4.50;;;;;;;4.26;100.00;101610.38;21160162;27;20300;-57
2021/12/17 13:53:38;;;;;;;11.50;5.10;;;;;;;4.17;100.00;101607.91;21142851;27;20225;-57
2021/12/17 14:04:01;;;;;;;12.37;4.77;;;;;;;4.13;100.00;101606.19;21141710;27;20247;-59
2021/12/17 14:24:01;;;;;;;12.50;4.73;;;;;;;4.07;100.00;101608.97;21059291;27;20307;-57
2021/12/17 14:34:04;;;;;;;10.63;4.67;;;;;;;4.08;100.00;101616.00;21056658;28;20271;-57
2021/12/17 14:44:21;;;;;;;10.37;4.97;;;;;;;4.12;100.00;101617.66;21057257;28;20242;-58
2021/12/17 15:04:46;;;;;;;9.03;4.80;;;;;;;4.17;100.00;101631.69;21055265;28;20578;-58
2021/12/17 15:14:51;;;;;;;8.97;4.60;;;;;;;4.22;100.00;101632.50;21052212;28;20310;-57
2021/12/17 15:24:55;;;;;;;10.20;4.40;;;;;;;4.29;100.00;101634.13;21053786;28;20225;-57
2021/12/17 15:34:59;;;;;;;8.60;4.80;;;;;;;4.32;100.00;101631.44;20998600;28;20250;-57
2021/12/17 15:45:04;;;;;;;6.47;3.60;;;;;;;4.37;100.00;101648.06;20912930;28;20243;-58
2021/12/17 15:55:08;;;;;;;5.90;3.30;;;;;;;4.39;100.00;101627.75;20919253;28;20231;-57
2021/12/17 16:05:17;;;;;;;9.10;4.40;;;;;;;4.42;100.00;101638.28;20919201;28;20330;-57
2021/12/17 16:25:43;;;;;;;8.83;4.50;;;;;;;4.42;100.00;101654.16;20909896;28;20231;-58
2021/12/17 16:35:47;;;;;;;8.77;4.10;;;;;;;4.41;100.00;101649.75;20908203;28;20255;-58
2021/12/17 16:46:12;;;;;;;9.97;4.83;;;;;;;4.37;100.00;101666.56;20896062;28;20250;-58
2021/12/17 16:56:18;;;;;;;7.20;4.03;;;;;;;4.30;100.00;101676.38;20903115;28;20227;-58
2021/12/17 17:16:21;;;;;;;7.13;3.03;;;;;;;3.99;100.00;101677.75;21069207;27;20559;-58
2021/12/17 17:36:24;;;;;;;4.73;2.57;;;;;;;3.62;100.00;101680.09;21067908;27;20690;-58
2021/12/17 17:46:29;;;;;;;7.87;3.77;;;;;;;3.41;100.00;101690.91;21056494;27;20240;-57
2021/12/17 17:56:32;;;;;;;8.83;3.10;;;;;;;3.29;100.00;101676.09;21053750;27;20255;-57
2021/12/17 18:06:36;;;;;;;8.47;4.13;;;;;;;3.07;100.00;101688.69;21055037;27;20226;-57
2021/12/17 18:26:34;;;;;;;8.83;3.90;;;;;;;2.85;100.00;101724.09;21101810;27;1412741;-57
2021/12/17 18:46:32;;;;;;;7.30;3.33;;;;;;;3.45;100.00;101753.31;21088947;27;1795743;-57
2021/12/17 19:36:18;;;;;;;8.57;4.60;;;;;;;3.31;100.00;101805.38;20908965;27;20557;-57
2021/12/17 19:46:25;;;;;;;7.27;4.40;;;;;;;3.07;100.00;101802.09;20885691;28;20341;-58
2021/12/17 19:56:33;;;;;;;7.20;3.80;;;;;;;3.01;100.00;101801.28;20889414;28;20262;-58
2021/12/17 20:06:57;;;;;;;6.87;3.47;;;;;;;3.03;100.00;101810.91;20887249;28;20814;-58
2021/12/17 20:26:57;;;;;;;11.47;4.13;;;;;;;2.89;100.00;101852.38;20974267;28;20943;-57
2021/12/17 20:37:01;;;;;;;7.07;3.43;;;;;;;2.83;100.00;101842.72;20972637;28;20217;-57
2021/12/17 20:47:04;;;;;;;9.73;4.77;;;;;;;2.78;100.00;101851.56;20971876;28;20222;-58
2021/12/17 21:07:08;;;;;;;4.80;2.80;;;;;;;2.62;100.00;101869.25;20973295;28;20610;-58
2021/12/17 21:17:12;;;;;;;4.27;2.73;;;;;;;2.62;100.00;101871.03;20973298;28;20573;-58
2021/12/17 21:47:10;;;;;;;8.00;3.00;;;;;;;2.74;100.00;101913.09;21048275;27;20597;-59
2021/12/17 21:57:15;;;;;;;5.63;2.83;;;;;;;2.82;100.00;101938.53;21062244;27;20252;-57
2021/12/17 22:07:19;;;;;;;8.67;3.47;;;;;;;2.96;100.00;101922.63;20949106;27;20333;-57
2021/12/17 22:17:22;;;;;;;6.03;2.83;;;;;;;3.11;100.00;101935.69;20953128;28;20388;-58
2021/12/17 22:27:26;;;;;;;5.67;2.93;;;;;;;3.20;100.00;101925.06;21028922;27;20222;-57
2021/12/17 23:07:28;;;;;;;8.63;4.10;;;;;;;3.35;100.00;101958.38;21069670;27;20567;-56
2021/12/17 23:17:32;;;;;;;5.33;3.53;;;;;;;3.44;100.00;101954.75;21057088;27;20734;-58
2021/12/17 23:27:35;;;;;;;12.57;4.53;;;;;;;3.40;100.00;101943.34;21057377;27;20225;-58
2021/12/17 23:37:39;;;;;;;8.03;3.90;;;;;;;3.40;100.00;101947.75;21056182;27;20711;-57
2021/12/17 23:47:42;;;;;;;10.00;4.50;;;;;;;3.25;100.00;101954.94;21055839;27;20574;-56
2021/12/17 23:57:46;;;;;;;8.00;4.20;;;;;;;3.08;100.00;101951.53;21054749;27;20245;-57
